Time;durP1;ratioP1;P1;durP2;ratioP2;P2;SDS_P1;SDS_P2;PMS_P1;PMS_P2;Temp;Humidity;BMP_temperature;BMP_pressure;BME280_temperature;BME280_humidity;BME280_pressure;Samples;Min_cycle;Max_cycle;Signal;HPM_P1;HPM_P2
2021/12/18 00:02:15;;;;;;;3.40;3.13;;;1.50;91.70;;;;;;5066933;28;20187;-77
2021/12/18 00:04:41;;;;;;;2.50;2.40;;;1.40;91.80;;;;;;5071532;28;20292;-76
2021/12/18 00:07:07;;;;;;;5.23;3.17;;;1.40;91.90;;;;;;5076591;28;20223;-74
2021/12/18 00:09:34;;;;;;;3.30;2.73;;;1.40;92.10;;;;;;5081000;28;20187;-76
2021/12/18 00:12:02;;;;;;;2.70;2.50;;;1.40;92.10;;;;;;5079396;28;20187;-76
2021/12/18 00:14:28;;;;;;;5.53;2.80;;;1.40;92.20;;;;;;5072140;28;20277;-75
2021/12/18 00:16:53;;;;;;;2.77;2.57;;;1.40;92.20;;;;;;5073979;28;20761;-76
2021/12/18 00:19:25;;;;;;;2.33;2.23;;;1.40;92.20;;;;;;5075378;28;21644;-76
2021/12/18 00:21:51;;;;;;;3.47;2.03;;;1.40;92.20;;;;;;5072298;28;20195;-76
2021/12/18 00:24:17;;;;;;;2.00;1.90;;;1.40;92.20;;;;;;5076621;28;20287;-76
2021/12/18 00:26:42;;;;;;;2.70;2.43;;;1.40;92.00;;;;;;5073247;28;22368;-76
2021/12/18 00:29:08;;;;;;;2.47;2.27;;;1.40;91.90;;;;;;5078471;28;20269;-76
2021/12/18 00:31:33;;;;;;;2.80;2.60;;;1.40;92.00;;;;;;5072869;28;20652;-76
2021/12/18 00:33:59;;;;;;;3.50;2.97;;;1.40;92.00;;;;;;5079836;28;20281;-76
2021/12/18 00:36:25;;;;;;;2.70;2.50;;;1.40;92.00;;;;;;5077275;28;20572;-76
2021/12/18 00:38:50;;;;;;;3.07;2.70;;;1.50;91.90;;;;;;5079084;28;20600;-76
2021/12/18 00:41:35;;;;;;;2.40;2.17;;;1.50;91.80;;;;;;5072581;28;20289;-77
2021/12/18 00:44:02;;;;;;;3.07;2.73;;;1.50;91.80;;;;;;5069880;28;20187;-76
2021/12/18 00:46:32;;;;;;;3.97;2.33;;;1.40;91.80;;;;;;5073555;28;20214;-76
2021/12/18 00:48:58;;;;;;;4.33;2.63;;;1.40;91.70;;;;;;5069956;28;20247;-76
2021/12/18 00:51:24;;;;;;;2.00;1.87;;;1.40;91.70;;;;;;5073764;28;20179;-76
2021/12/18 00:53:50;;;;;;;4.13;2.67;;;1.30;91.70;;;;;;5073297;28;20191;-77
2021/12/18 00:56:16;;;;;;;8.47;3.47;;;1.30;91.70;;;;;;5074581;28;20671;-76
2021/12/18 00:58:42;;;;;;;2.87;2.63;;;1.30;91.80;;;;;;5073982;28;20183;-76
2021/12/18 01:01:10;;;;;;;2.63;2.43;;;1.30;91.70;;;;;;5077555;28;20589;-76
2021/12/18 01:03:37;;;;;;;3.80;2.63;;;1.30;91.70;;;;;;5073884;28;20211;-76
2021/12/18 01:06:04;;;;;;;5.17;3.57;;;1.30;91.80;;;;;;5074233;28;20213;-76
2021/12/18 01:08:30;;;;;;;7.00;3.23;;;1.30;91.90;;;;;;5067401;28;20227;-76
2021/12/18 01:13:26;;;;;;;5.80;3.67;;;1.30;91.90;;;;;;5072896;28;20192;-76
2021/12/18 01:15:55;;;;;;;4.17;2.77;;;1.30;91.80;;;;;;5069526;28;20198;-76
2021/12/18 01:23:50;;;;;;;4.67;3.50;;;1.30;91.50;;;;;;5074216;28;20252;-76
2021/12/18 01:26:17;;;;;;;3.53;3.10;;;1.30;91.30;;;;;;5076882;28;20673;-76
2021/12/18 01:28:42;;;;;;;3.60;3.27;;;1.30;91.30;;;;;;5078141;28;20179;-76
2021/12/18 01:31:09;;;;;;;2.87;2.30;;;1.30;91.40;;;;;;5069618;28;20253;-76
2021/12/18 01:33:35;;;;;;;2.23;2.13;;;1.40;91.40;;;;;;5074123;28;20186;-77
2021/12/18 01:36:01;;;;;;;2.70;2.50;;;1.30;91.30;;;;;;5078055;28;20201;-76
2021/12/18 01:38:31;;;;;;;6.37;2.40;;;1.30;91.20;;;;;;5070147;28;20175;-76
2021/12/18 01:40:59;;;;;;;3.33;2.20;;;1.40;91.20;;;;;;5070834;28;20171;-76
2021/12/18 01:46:33;;;;;;;2.40;2.13;;;1.40;90.90;;;;;;5069790;28;20210;-76
2021/12/18 01:54:11;;;;;;;1.93;1.83;;;1.40;90.80;;;;;;5074807;28;20175;-76
2021/12/18 01:56:37;;;;;;;2.10;1.83;;;1.40;90.90;;;;;;5071165;28;20174;-76
2021/12/18 01:59:03;;;;;;;3.40;3.10;;;1.40;90.90;;;;;;5075707;28;20190;-77
2021/12/18 02:01:29;;;;;;;2.40;2.30;;;1.40;91.00;;;;;;5070285;28;20712;-76
2021/12/18 02:03:54;;;;;;;4.43;2.77;;;1.30;91.00;;;;;;5076294;28;20193;-76
2021/12/18 02:06:21;;;;;;;2.47;2.27;;;1.40;91.20;;;;;;5072678;28;20203;-76
2021/12/18 02:08:47;;;;;;;2.60;2.40;;;1.40;91.20;;;;;;5073463;28;20608;-76
2021/12/18 02:11:34;;;;;;;2.33;2.13;;;1.40;91.20;;;;;;5073713;28;20188;-76
2021/12/18 02:14:23;;;;;;;2.13;1.93;;;1.40;91.20;;;;;;5073098;28;20182;-76
2021/12/18 02:22:02;;;;;;;3.07;2.77;;;1.40;91.20;;;;;;5071255;28;20210;-76
2021/12/18 02:24:30;;;;;;;2.67;2.57;;;1.40;91.00;;;;;;5073365;28;20604;-76
2021/12/18 02:26:58;;;;;;;1.63;1.53;;;1.40;90.90;;;;;;5068316;28;20821;-76
2021/12/18 02:29:24;;;;;;;2.73;2.53;;;1.30;90.80;;;;;;5071958;28;20193;-76
2021/12/18 02:31:50;;;;;;;2.80;2.53;;;1.30;90.90;;;;;;5071690;28;20189;-76
2021/12/18 02:34:22;;;;;;;5.03;2.47;;;1.40;91.20;;;;;;5077775;28;20182;-75
2021/12/18 02:36:49;;;;;;;3.27;2.70;;;1.30;91.20;;;;;;5072873;28;20231;-76
2021/12/18 02:39:25;;;;;;;2.67;2.47;;;1.30;91.20;;;;;;5070453;28;20195;-76
2021/12/18 02:42:18;;;;;;;2.30;2.03;;;1.30;91.20;;;;;;5074105;28;20687;-76
2021/12/18 02:44:45;;;;;;;2.20;2.10;;;1.30;91.40;;;;;;5071914;28;20569;-76
2021/12/18 02:47:12;;;;;;;2.33;2.20;;;1.30;91.60;;;;;;5065807;28;20183;-75
2021/12/18 02:49:49;;;;;;;4.90;3.10;;;1.30;91.60;;;;;;5069439;28;20186;-76
2021/12/18 02:52:15;;;;;;;3.30;2.30;;;1.20;91.70;;;;;;5076477;28;20209;-76
2021/12/18 02:54:42;;;;;;;3.37;3.00;;;1.20;91.90;;;;;;5073733;28;20212;-75
2021/12/18 02:57:08;;;;;;;2.53;2.33;;;1.20;91.90;;;;;;5069741;28;20187;-76
2021/12/18 02:59:45;;;;;;;2.40;2.23;;;1.20;91.90;;;;;;5073328;28;20186;-75
2021/12/18 03:02:12;;;;;;;2.27;2.00;;;1.20;91.90;;;;;;5070825;28;20942;-75
2021/12/18 03:04:40;;;;;;;2.50;2.33;;;1.20;91.90;;;;;;5072177;28;20222;-74
2021/12/18 03:07:08;;;;;;;2.23;2.13;;;1.20;92.20;;;;;;5071786;28;20182;-75
2021/12/18 03:19:07;;;;;;;3.20;3.00;;;1.20;92.10;;;;;;5076262;28;20212;-74
2021/12/18 03:25:39;;;;;;;1.70;1.63;;;1.30;92.10;;;;;;5070571;28;20230;-75
2021/12/18 03:28:07;;;;;;;2.37;2.17;;;1.20;92.20;;;;;;5067104;28;20175;-75
2021/12/18 03:30:34;;;;;;;2.73;2.53;;;1.20;92.50;;;;;;5075602;28;20187;-74
2021/12/18 03:33:00;;;;;;;4.27;2.23;;;1.20;93.20;;;;;;5076316;28;20190;-75
2021/12/18 03:35:26;;;;;;;2.87;2.30;;;1.20;93.70;;;;;;5073118;28;20198;-75
2021/12/18 03:37:53;;;;;;;2.37;2.27;;;1.10;94.50;;;;;;5071673;28;20590;-74
2021/12/18 03:40:21;;;;;;;2.60;2.47;;;1.00;95.10;;;;;;5072191;28;20189;-74
2021/12/18 03:42:47;;;;;;;4.47;2.83;;;0.90;95.80;;;;;;5072553;28;20186;-75
2021/12/18 03:45:14;;;;;;;3.13;2.60;;;0.90;96.20;;;;;;5071404;28;20615;-74
2021/12/18 03:47:40;;;;;;;4.00;3.40;;;0.90;96.70;;;;;;5074672;28;20186;-74
2021/12/18 03:50:06;;;;;;;2.67;2.27;;;0.80;97.00;;;;;;5078677;28;20238;-75
2021/12/18 03:52:32;;;;;;;9.63;3.23;;;0.80;97.20;;;;;;5076874;28;20693;-75
2021/12/18 03:54:59;;;;;;;2.33;2.13;;;0.80;97.40;;;;;;5075164;28;20212;-76
2021/12/18 03:57:25;;;;;;;4.90;1.97;;;0.80;97.80;;;;;;5081344;28;20182;-76
2021/12/18 03:59:51;;;;;;;2.60;2.17;;;0.80;97.40;;;;;;5075296;28;20191;-76
2021/12/18 04:02:17;;;;;;;4.50;2.03;;;0.80;97.20;;;;;;5073179;28;20930;-76
2021/12/18 04:04:42;;;;;;;4.93;2.40;;;0.90;96.90;;;;;;5077083;28;20217;-76
2021/12/18 04:07:08;;;;;;;1.80;1.67;;;0.90;96.90;;;;;;5074757;28;20183;-75
2021/12/18 04:09:35;;;;;;;2.03;1.93;;;0.80;97.20;;;;;;5082885;28;20206;-75
2021/12/18 04:12:01;;;;;;;3.93;2.70;;;0.80;97.20;;;;;;5076540;28;20189;-77
2021/12/18 04:14:27;;;;;;;4.50;2.80;;;0.80;97.40;;;;;;5076434;28;20244;-76
2021/12/18 04:16:53;;;;;;;2.60;2.40;;;0.80;97.10;;;;;;5076052;28;20550;-75
2021/12/18 04:19:19;;;;;;;2.47;2.23;;;0.80;97.30;;;;;;5077270;28;20182;-76
2021/12/18 04:21:46;;;;;;;2.97;2.80;;;0.80;97.30;;;;;;5073946;28;20179;-76
2021/12/18 04:24:12;;;;;;;5.47;3.33;;;0.90;97.20;;;;;;5072682;28;20187;-75
2021/12/18 04:26:38;;;;;;;2.80;2.60;;;0.90;97.20;;;;;;5079938;28;20214;-76
2021/12/18 04:29:07;;;;;;;2.57;2.37;;;0.90;97.20;;;;;;5081816;28;20214;-75
2021/12/18 04:31:38;;;;;;;2.27;2.17;;;0.90;97.00;;;;;;5074656;28;20179;-74
2021/12/18 04:34:04;;;;;;;2.87;2.63;;;0.90;97.00;;;;;;5077527;28;20226;-75
2021/12/18 04:36:30;;;;;;;3.63;2.40;;;0.90;96.90;;;;;;5065539;28;20183;-75
2021/12/18 04:38:56;;;;;;;4.40;2.37;;;0.90;96.70;;;;;;5072288;28;20755;-75
2021/12/18 04:41:34;;;;;;;2.63;2.43;;;0.90;96.50;;;;;;5069913;28;20187;-75
2021/12/18 04:43:59;;;;;;;2.60;2.50;;;0.90;96.50;;;;;;5073820;28;20174;-74
2021/12/18 04:46:25;;;;;;;3.67;2.37;;;0.90;96.40;;;;;;5077417;28;21636;-75
2021/12/18 04:48:51;;;;;;;4.20;2.47;;;0.90;96.10;;;;;;5077787;28;20183;-75
2021/12/18 04:51:16;;;;;;;2.73;2.53;;;0.90;95.90;;;;;;5074238;28;20237;-76
2021/12/18 04:53:42;;;;;;;2.43;2.10;;;0.90;95.70;;;;;;5074098;28;20194;-76
2021/12/18 04:56:08;;;;;;;4.57;2.27;;;0.90;95.70;;;;;;5076748;28;20190;-75
2021/12/18 04:58:33;;;;;;;2.83;2.33;;;0.90;95.70;;;;;;5074095;28;20213;-75
2021/12/18 05:00:59;;;;;;;2.33;2.13;;;0.90;95.60;;;;;;5068900;28;20183;-76
2021/12/18 05:03:25;;;;;;;2.70;2.50;;;1.00;95.50;;;;;;5075486;28;20247;-77
2021/12/18 05:05:51;;;;;;;2.53;2.07;;;1.00;95.50;;;;;;5075117;28;20241;-75
2021/12/18 05:08:17;;;;;;;3.57;2.17;;;1.00;95.50;;;;;;5074724;28;20178;-76
2021/12/18 05:10:42;;;;;;;1.13;1.13;;;1.00;95.30;;;;;;5074835;28;20214;-75
2021/12/18 05:13:08;;;;;;;2.00;1.90;;;1.00;95.00;;;;;;5068736;28;20178;-75
2021/12/18 05:15:34;;;;;;;1.70;1.60;;;1.00;94.80;;;;;;5070613;28;20195;-75
2021/12/18 05:18:00;;;;;;;3.37;1.97;;;1.00;94.70;;;;;;5068042;28;20681;-75
2021/12/18 05:20:26;;;;;;;2.80;1.70;;;1.00;94.70;;;;;;5072670;28;20648;-75
2021/12/18 05:22:51;;;;;;;2.83;2.63;;;1.00;94.40;;;;;;5073370;28;20190;-75
2021/12/18 05:25:17;;;;;;;3.63;2.17;;;1.00;94.50;;;;;;5072214;28;20211;-75
2021/12/18 05:27:43;;;;;;;6.00;1.67;;;1.00;94.50;;;;;;5076971;28;20178;-75
2021/12/18 05:30:10;;;;;;;2.03;1.93;;;1.00;94.50;;;;;;5076498;28;20213;-75
2021/12/18 05:32:36;;;;;;;2.80;2.17;;;1.00;94.40;;;;;;5074861;28;20179;-75
2021/12/18 05:35:02;;;;;;;2.37;2.00;;;1.00;94.40;;;;;;5029589;28;1180860;-75
2021/12/18 05:40:14;;;;;;;1.90;1.77;;;1.00;94.40;;;;;;5070820;28;20584;-75
2021/12/18 05:42:40;;;;;;;2.17;2.03;;;1.00;94.40;;;;;;5074197;28;20183;-75
2021/12/18 05:45:07;;;;;;;2.10;2.00;;;1.00;94.20;;;;;;5077148;28;20210;-75
2021/12/18 05:47:33;;;;;;;2.83;1.73;;;1.00;94.30;;;;;;5072392;28;20274;-74
2021/12/18 05:49:59;;;;;;;1.63;1.53;;;1.00;94.30;;;;;;5071584;28;20175;-75
2021/12/18 05:52:25;;;;;;;2.13;2.03;;;1.00;94.20;;;;;;5072906;28;20651;-75
2021/12/18 05:54:51;;;;;;;2.83;2.27;;;1.00;94.20;;;;;;5075206;28;20261;-74
2021/12/18 05:57:17;;;;;;;2.77;1.80;;;1.00;94.20;;;;;;5075340;28;20266;-74
2021/12/18 05:59:44;;;;;;;3.50;2.03;;;1.00;94.10;;;;;;5073455;28;20179;-74
2021/12/18 06:02:10;;;;;;;2.00;2.00;;;1.00;94.10;;;;;;5077022;28;20209;-76
2021/12/18 06:04:35;;;;;;;2.40;2.20;;;1.00;93.90;;;;;;5073476;28;20210;-74
2021/12/18 06:07:05;;;;;;;2.33;1.93;;;1.00;94.10;;;;;;5077326;28;20625;-75
2021/12/18 06:09:35;;;;;;;3.97;2.67;;;1.00;94.20;;;;;;5077206;28;20266;-76
2021/12/18 06:12:01;;;;;;;1.80;1.67;;;1.00;94.20;;;;;;5071673;28;20220;-76
2021/12/18 06:14:28;;;;;;;2.37;2.23;;;1.00;94.40;;;;;;5071145;28;20174;-76
2021/12/18 06:16:54;;;;;;;2.37;2.17;;;1.00;94.60;;;;;;5074786;28;20182;-76
2021/12/18 06:19:20;;;;;;;3.03;2.53;;;1.00;94.70;;;;;;5072941;28;20175;-74
2021/12/18 06:21:46;;;;;;;3.07;2.77;;;1.00;94.90;;;;;;5068610;28;20239;-79
2021/12/18 06:24:11;;;;;;;3.07;2.60;;;1.00;95.10;;;;;;5076886;28;20185;-75
2021/12/18 06:26:37;;;;;;;4.13;3.00;;;1.00;95.30;;;;;;5068922;28;20227;-75
2021/12/18 06:29:03;;;;;;;2.73;2.53;;;0.90;95.50;;;;;;5070411;28;20265;-72
2021/12/18 06:31:29;;;;;;;5.03;2.73;;;0.90;95.60;;;;;;5073196;28;20183;-75
2021/12/18 06:33:55;;;;;;;5.53;1.77;;;1.00;95.50;;;;;;5072153;28;20214;-78
2021/12/18 06:36:20;;;;;;;3.03;2.83;;;1.00;95.60;;;;;;5074602;28;20619;-76
2021/12/18 06:38:46;;;;;;;1.83;1.73;;;1.00;95.60;;;;;;5070631;28;20235;-75
2021/12/18 06:41:12;;;;;;;2.40;2.30;;;1.00;95.70;;;;;;5073512;28;20197;-76
2021/12/18 06:43:37;;;;;;;2.67;2.47;;;1.00;95.70;;;;;;5072286;28;20178;-75
2021/12/18 06:46:03;;;;;;;5.90;2.33;;;1.10;95.80;;;;;;5072794;28;20296;-75
2021/12/18 06:48:29;;;;;;;2.57;2.37;;;1.10;95.70;;;;;;5070975;28;20181;-76
2021/12/18 06:50:54;;;;;;;2.40;2.13;;;1.10;95.60;;;;;;5067693;28;20196;-76
2021/12/18 06:53:20;;;;;;;2.50;2.23;;;1.00;95.70;;;;;;5068617;28;20965;-78
2021/12/18 06:55:46;;;;;;;4.57;2.37;;;1.00;95.90;;;;;;5072449;28;20576;-76
2021/12/18 06:58:12;;;;;;;2.57;2.30;;;1.00;96.00;;;;;;5069699;28;20263;-76
2021/12/18 07:00:38;;;;;;;4.37;2.47;;;1.00;96.40;;;;;;5074434;28;20691;-79
2021/12/18 07:03:04;;;;;;;2.70;2.50;;;0.90;96.60;;;;;;5067523;28;20284;-78
2021/12/18 07:05:29;;;;;;;2.53;2.27;;;0.90;97.00;;;;;;5071459;28;20300;-79
2021/12/18 07:07:56;;;;;;;2.10;2.00;;;0.90;97.90;;;;;;5069984;28;20845;-79
2021/12/18 07:10:22;;;;;;;6.37;2.43;;;0.90;97.90;;;;;;5070743;28;20281;-77
2021/12/18 07:12:48;;;;;;;2.63;2.07;;;1.00;97.70;;;;;;5067491;28;20269;-78
2021/12/18 07:15:14;;;;;;;3.23;2.23;;;1.00;97.60;;;;;;5068980;28;20197;-79
2021/12/18 07:17:40;;;;;;;3.63;3.33;;;1.00;97.50;;;;;;5073929;28;20182;-76
2021/12/18 07:20:08;;;;;;;3.20;3.00;;;1.00;97.30;;;;;;5072087;28;20231;-77
2021/12/18 07:22:34;;;;;;;3.73;3.40;;;1.00;97.30;;;;;;5087138;28;20178;-75
2021/12/18 07:25:00;;;;;;;5.17;2.90;;;1.10;97.20;;;;;;5068495;28;20641;-76
2021/12/18 07:27:26;;;;;;;4.03;3.63;;;1.10;97.50;;;;;;5072027;28;20178;-73
2021/12/18 07:29:53;;;;;;;3.50;3.20;;;1.20;97.50;;;;;;5071991;28;20194;-75
2021/12/18 07:32:19;;;;;;;2.87;2.67;;;1.30;97.00;;;;;;5066932;28;20193;-78
2021/12/18 07:34:45;;;;;;;3.07;2.73;;;1.40;96.90;;;;;;5068829;28;20194;-76
2021/12/18 07:37:10;;;;;;;3.27;3.07;;;1.50;96.50;;;;;;5069264;28;20676;-76
2021/12/18 07:39:36;;;;;;;4.47;2.70;;;1.60;96.30;;;;;;5068220;28;20186;-76
2021/12/18 07:42:02;;;;;;;3.00;2.80;;;1.60;95.90;;;;;;5065893;28;20191;-70
2021/12/18 07:44:28;;;;;;;3.27;3.03;;;1.70;95.70;;;;;;5068841;28;20265;-75
2021/12/18 07:46:53;;;;;;;4.07;3.37;;;1.90;96.00;;;;;;5069851;28;20190;-75
2021/12/18 07:49:19;;;;;;;2.70;2.50;;;2.10;95.70;;;;;;5065334;28;20205;-71
2021/12/18 07:51:45;;;;;;;3.30;3.10;;;2.20;95.00;;;;;;5069703;28;20182;-71
2021/12/18 07:54:10;;;;;;;2.73;2.53;;;2.30;94.00;;;;;;5068090;28;20191;-71
2021/12/18 07:56:36;;;;;;;3.00;2.77;;;2.30;93.10;;;;;;5067451;28;20224;-72
2021/12/18 07:59:03;;;;;;;4.30;3.00;;;2.30;93.00;;;;;;5067628;28;20191;-73
2021/12/18 08:01:28;;;;;;;3.67;2.97;;;2.40;92.80;;;;;;5067693;28;20187;-71
2021/12/18 08:03:54;;;;;;;3.40;3.17;;;2.40;92.10;;;;;;5070013;28;20182;-73
2021/12/18 08:06:20;;;;;;;6.17;3.00;;;2.50;91.80;;;;;;5069297;28;20579;-76
2021/12/18 08:08:46;;;;;;;3.83;3.47;;;2.40;91.90;;;;;;5071553;28;20198;-76
2021/12/18 08:11:12;;;;;;;3.93;3.40;;;2.40;91.90;;;;;;5070370;28;20190;-78
2021/12/18 08:13:39;;;;;;;3.57;3.27;;;2.40;91.60;;;;;;5071947;28;21006;-77
2021/12/18 08:16:05;;;;;;;4.53;3.73;;;2.30;91.60;;;;;;5068499;28;20201;-75
2021/12/18 08:18:30;;;;;;;6.37;4.40;;;2.40;92.10;;;;;;5070017;28;20179;-76
2021/12/18 08:20:56;;;;;;;5.60;4.27;;;2.60;92.40;;;;;;5065521;28;20745;-74
2021/12/18 08:23:22;;;;;;;5.53;3.87;;;2.70;91.00;;;;;;5063782;28;20190;-74
2021/12/18 08:25:48;;;;;;;5.63;3.70;;;2.70;90.70;;;;;;5067918;28;20305;-75
2021/12/18 08:28:14;;;;;;;4.67;3.93;;;2.70;90.40;;;;;;5070984;28;20187;-77
2021/12/18 08:30:40;;;;;;;6.93;3.53;;;2.70;90.50;;;;;;5084714;28;20187;-76
2021/12/18 08:33:06;;;;;;;5.73;3.80;;;3.00;91.00;;;;;;5077229;28;20316;-77
2021/12/18 08:35:33;;;;;;;7.43;3.97;;;3.50;91.50;;;;;;5072077;28;20195;-78
2021/12/18 08:38:01;;;;;;;5.70;4.10;;;4.10;88.30;;;;;;5071347;28;20182;-76
2021/12/18 08:40:27;;;;;;;9.63;4.37;;;4.50;87.20;;;;;;5072986;28;20303;-77
2021/12/18 08:42:53;;;;;;;5.67;4.23;;;5.10;86.80;;;;;;5072851;28;20202;-77
2021/12/18 08:45:19;;;;;;;4.00;3.70;;;5.80;86.40;;;;;;5073503;28;20241;-78
2021/12/18 08:47:45;;;;;;;6.27;4.43;;;6.40;84.50;;;;;;5074194;28;20187;-78
2021/12/18 08:50:13;;;;;;;7.37;4.80;;;6.90;83.10;;;;;;5073939;28;20620;-77
2021/12/18 08:52:40;;;;;;;8.63;4.53;;;7.40;80.70;;;;;;5075819;28;20269;-77
2021/12/18 08:55:06;;;;;;;5.83;4.47;;;7.80;79.30;;;;;;5074010;28;20183;-76
2021/12/18 08:57:32;;;;;;;7.00;5.30;;;8.20;77.10;;;;;;5070999;28;20183;-76
2021/12/18 08:59:58;;;;;;;6.23;4.57;;;8.30;76.40;;;;;;5069333;28;20190;-75
2021/12/18 09:02:24;;;;;;;4.43;4.03;;;8.40;75.00;;;;;;5069668;28;20185;-75
2021/12/18 09:04:50;;;;;;;4.63;4.17;;;8.20;75.20;;;;;;5074202;28;20186;-75
2021/12/18 09:07:16;;;;;;;4.93;4.53;;;8.10;76.40;;;;;;5075352;28;20181;-76
2021/12/18 09:09:42;;;;;;;9.67;5.70;;;7.90;75.10;;;;;;5070714;28;21755;-75
2021/12/18 09:12:09;;;;;;;5.07;3.90;;;7.60;75.30;;;;;;5071343;28;20259;-73
2021/12/18 09:14:35;;;;;;;4.70;4.27;;;7.20;76.10;;;;;;5073684;28;20182;-74
2021/12/18 09:17:01;;;;;;;6.40;5.17;;;6.80;76.50;;;;;;5068144;28;20183;-74
2021/12/18 09:19:27;;;;;;;9.00;5.30;;;6.40;77.60;;;;;;5070869;28;20209;-69
2021/12/18 09:21:52;;;;;;;4.80;4.27;;;6.20;78.90;;;;;;5069731;28;20687;-72
2021/12/18 09:24:20;;;;;;;5.07;3.53;;;5.90;79.00;;;;;;5068453;28;20191;-73
2021/12/18 09:26:46;;;;;;;5.03;3.30;;;5.90;79.50;;;;;;5070502;28;20634;-72
2021/12/18 09:29:12;;;;;;;2.50;2.40;;;5.90;79.50;;;;;;5069338;28;20182;-73
2021/12/18 09:31:38;;;;;;;4.17;3.17;;;5.90;79.10;;;;;;5069046;28;20188;-72
2021/12/18 09:34:03;;;;;;;4.03;3.67;;;5.80;79.10;;;;;;5068722;28;20180;-72
2021/12/18 09:36:30;;;;;;;3.63;3.33;;;5.70;79.70;;;;;;5072153;28;20660;-72
2021/12/18 09:38:56;;;;;;;2.30;2.20;;;5.50;80.00;;;;;;5065447;28;20194;-73
2021/12/18 09:41:23;;;;;;;4.73;2.50;;;5.40;80.10;;;;;;5068506;28;20183;-72
2021/12/18 09:43:49;;;;;;;2.83;2.63;;;5.30;80.60;;;;;;5073510;28;20277;-74
2021/12/18 09:46:17;;;;;;;3.40;3.10;;;5.20;80.70;;;;;;5069354;28;20383;-72
2021/12/18 09:48:44;;;;;;;9.57;2.93;;;5.00;80.90;;;;;;5067985;28;20235;-72
2021/12/18 09:51:21;;;;;;;2.63;2.43;;;4.80;81.10;;;;;;5070341;28;20183;-75
2021/12/18 09:53:47;;;;;;;2.43;2.23;;;4.60;81.30;;;;;;5070760;28;20189;-74
2021/12/18 09:56:13;;;;;;;2.27;2.17;;;4.30;82.20;;;;;;5073490;28;20193;-72
2021/12/18 09:58:39;;;;;;;2.27;2.07;;;4.20;82.50;;;;;;5068651;28;20316;-73
2021/12/18 10:01:05;;;;;;;3.03;2.30;;;4.10;82.80;;;;;;5067073;28;20265;-74
2021/12/18 10:03:53;;;;;;;2.53;2.10;;;4.00;82.90;;;;;;5073763;28;20223;-73
2021/12/18 10:06:42;;;;;;;3.00;2.30;;;3.90;83.20;;;;;;5071046;28;20283;-72
2021/12/18 10:09:28;;;;;;;3.50;2.50;;;4.00;83.60;;;;;;5068179;28;20688;-72
2021/12/18 10:12:00;;;;;;;4.97;2.47;;;4.10;83.70;;;;;;5069115;28;20193;-73
2021/12/18 10:14:33;;;;;;;3.07;2.17;;;4.30;84.20;;;;;;5069875;28;20265;-73
2021/12/18 10:17:00;;;;;;;2.63;2.40;;;4.70;84.30;;;;;;5065804;28;20233;-72
2021/12/18 10:19:31;;;;;;;2.90;2.77;;;4.90;81.90;;;;;;5068424;28;20183;-72
2021/12/18 10:22:09;;;;;;;3.47;3.03;;;4.90;81.40;;;;;;5068041;28;20217;-72
2021/12/18 10:24:38;;;;;;;3.23;2.90;;;4.90;81.60;;;;;;5063472;28;20186;-72
2021/12/18 10:27:22;;;;;;;4.80;3.30;;;5.00;81.60;;;;;;5069714;28;20170;-74
2021/12/18 10:29:50;;;;;;;7.63;5.13;;;5.00;81.60;;;;;;5068545;28;20183;-74
2021/12/18 10:32:18;;;;;;;7.93;4.33;;;4.90;81.70;;;;;;5064976;28;20194;-74
2021/12/18 10:34:59;;;;;;;5.23;3.60;;;5.00;82.10;;;;;;5068839;28;20598;-73
2021/12/18 10:37:31;;;;;;;5.23;3.90;;;5.60;81.90;;;;;;5069360;28;20178;-76
2021/12/18 10:40:10;;;;;;;3.70;3.40;;;5.80;80.50;;;;;;5066055;28;20187;-73
2021/12/18 10:42:42;;;;;;;4.13;3.37;;;6.00;79.80;;;;;;5069563;28;20179;-75
2021/12/18 10:45:11;;;;;;;4.93;3.17;;;6.10;80.20;;;;;;5073175;28;20248;-76
2021/12/18 10:48:00;;;;;;;3.77;3.07;;;6.50;80.80;;;;;;5073137;28;20261;-74
2021/12/18 10:50:35;;;;;;;2.97;2.67;;;7.00;79.10;;;;;;5068822;28;20182;-73
2021/12/18 10:53:10;;;;;;;3.57;3.27;;;7.20;77.70;;;;;;5070545;28;20192;-72
2021/12/18 10:55:45;;;;;;;4.07;3.47;;;7.20;76.60;;;;;;5070843;28;20576;-72
2021/12/18 10:58:33;;;;;;;4.43;3.00;;;7.20;77.00;;;;;;5065895;28;20177;-72
2021/12/18 11:00:58;;;;;;;2.30;2.10;;;7.20;76.70;;;;;;5066747;28;20191;-72
2021/12/18 11:03:31;;;;;;;3.13;2.30;;;7.50;77.50;;;;;;5068791;28;20959;-71
2021/12/18 11:06:08;;;;;;;2.63;2.40;;;8.00;77.90;;;;;;5066322;28;20211;-75
2021/12/18 11:08:37;;;;;;;3.20;3.00;;;8.40;75.20;;;;;;5063567;28;20178;-77
2021/12/18 11:13:52;;;;;;;1.90;1.73;;;8.20;71.50;;;;;;5072243;28;20189;-77
2021/12/18 11:16:19;;;;;;;2.43;1.50;;;7.90;71.30;;;;;;5075078;28;20189;-76
2021/12/18 11:18:46;;;;;;;1.10;1.10;;;7.70;71.60;;;;;;5067501;28;20178;-75
2021/12/18 11:21:13;;;;;;;0.93;0.93;;;7.50;71.40;;;;;;5071629;28;20187;-75
2021/12/18 11:23:54;;;;;;;0.70;0.70;;;7.30;70.70;;;;;;5067599;28;20175;-74
2021/12/18 11:26:22;;;;;;;1.57;0.93;;;7.10;71.50;;;;;;5069601;28;20214;-74
2021/12/18 11:28:50;;;;;;;2.03;0.80;;;6.90;71.60;;;;;;5073801;28;20211;-75
2021/12/18 11:31:17;;;;;;;0.93;0.93;;;6.70;71.40;;;;;;5072815;28;20186;-75
2021/12/18 11:33:43;;;;;;;0.60;0.60;;;6.60;72.00;;;;;;5074943;28;20265;-72
2021/12/18 11:36:09;;;;;;;0.67;0.67;;;6.50;73.00;;;;;;5067957;28;20611;-76
2021/12/18 11:38:37;;;;;;;0.67;0.67;;;6.50;72.80;;;;;;5073335;28;20679;-74
2021/12/18 11:41:03;;;;;;;1.60;1.00;;;6.50;73.10;;;;;;5072343;28;20917;-74
2021/12/18 11:43:34;;;;;;;1.73;0.77;;;6.50;73.60;;;;;;5074182;28;20182;-74
2021/12/18 11:46:00;;;;;;;0.97;0.73;;;6.60;73.00;;;;;;5071128;28;20210;-74
2021/12/18 11:48:26;;;;;;;1.20;1.20;;;6.60;73.20;;;;;;5071671;28;20197;-74
2021/12/18 11:50:52;;;;;;;2.17;1.20;;;6.60;72.90;;;;;;5069538;28;20662;-73
2021/12/18 11:53:20;;;;;;;0.73;0.73;;;6.60;72.90;;;;;;5073100;28;20190;-74
2021/12/18 11:55:49;;;;;;;0.97;0.97;;;6.60;72.10;;;;;;5070283;28;20187;-73
2021/12/18 11:58:24;;;;;;;0.60;0.60;;;6.60;72.40;;;;;;5069445;28;20178;-74
2021/12/18 12:00:59;;;;;;;0.63;0.63;;;6.50;72.20;;;;;;5069124;28;20672;-73
2021/12/18 12:03:40;;;;;;;0.80;0.73;;;6.40;74.10;;;;;;5069199;28;20178;-74
2021/12/18 12:06:21;;;;;;;0.87;0.87;;;6.40;73.20;;;;;;5067039;28;20229;-74
2021/12/18 12:08:50;;;;;;;0.90;0.90;;;6.40;72.10;;;;;;5070358;28;20191;-76
2021/12/18 12:11:21;;;;;;;0.70;0.70;;;6.30;72.00;;;;;;5071674;28;20297;-76
2021/12/18 12:13:53;;;;;;;0.87;0.73;;;6.30;72.40;;;;;;5087880;28;20190;-73
2021/12/18 12:16:18;;;;;;;0.80;0.80;;;6.30;72.70;;;;;;5070484;28;20195;-74
2021/12/18 12:19:06;;;;;;;0.80;0.80;;;6.30;74.00;;;;;;5070914;28;20938;-71
2021/12/18 12:21:44;;;;;;;2.10;1.00;;;6.10;75.10;;;;;;5075035;28;20282;-72
2021/12/18 12:24:11;;;;;;;0.77;0.77;;;6.00;76.10;;;;;;5088943;28;20187;-76
2021/12/18 12:26:37;;;;;;;1.00;0.80;;;5.90;77.40;;;;;;5073910;28;21990;-76
2021/12/18 12:29:05;;;;;;;1.20;1.10;;;5.80;77.70;;;;;;5071378;28;20264;-76
2021/12/18 12:31:31;;;;;;;1.47;1.37;;;5.70;78.00;;;;;;5071436;28;20178;-78
2021/12/18 12:34:33;;;;;;;1.63;1.30;;;5.40;78.40;;;;;;5077379;28;20251;-76
2021/12/18 12:37:24;;;;;;;1.33;1.23;;;5.30;78.70;;;;;;5009132;28;20379;-76
2021/12/18 12:39:59;;;;;;;1.50;1.40;;;5.10;79.00;;;;;;4996217;28;20697;-76
2021/12/18 12:42:25;;;;;;;1.80;1.53;;;5.10;79.00;;;;;;4995599;28;20203;-74
2021/12/18 12:45:05;;;;;;;1.13;1.13;;;5.00;79.20;;;;;;5013992;28;21873;-74
2021/12/18 12:47:31;;;;;;;1.40;1.30;;;5.00;78.80;;;;;;5009435;28;21587;-74
2021/12/18 12:50:00;;;;;;;1.53;1.30;;;5.10;78.80;;;;;;4994432;28;20690;-75
2021/12/18 12:52:28;;;;;;;1.40;1.40;;;5.20;78.50;;;;;;5012712;28;20192;-75
2021/12/18 12:55:05;;;;;;;1.40;1.40;;;5.40;77.60;;;;;;5011560;28;20188;-73
2021/12/18 12:57:32;;;;;;;1.20;1.20;;;5.40;77.30;;;;;;5008425;28;20192;-73
2021/12/18 12:59:58;;;;;;;3.07;1.50;;;5.30;77.30;;;;;;5012327;28;20265;-74
2021/12/18 13:02:32;;;;;;;1.20;1.20;;;5.20;77.70;;;;;;5003668;28;20185;-73
2021/12/18 13:05:06;;;;;;;1.00;1.00;;;5.00;78.30;;;;;;5005951;28;20200;-72
2021/12/18 13:07:32;;;;;;;1.37;1.33;;;4.90;78.80;;;;;;5008513;28;20195;-73
2021/12/18 13:09:58;;;;;;;1.00;0.93;;;4.80;79.10;;;;;;4994429;28;20188;-73
2021/12/18 13:12:24;;;;;;;1.63;1.10;;;4.60;79.60;;;;;;5038479;28;20183;-74
2021/12/18 13:14:50;;;;;;;1.90;1.30;;;4.40;80.30;;;;;;5066755;28;20307;-74
2021/12/18 13:17:20;;;;;;;1.33;1.03;;;4.30;80.80;;;;;;5068429;28;20660;-75
2021/12/18 13:19:53;;;;;;;1.10;1.10;;;4.10;81.60;;;;;;5071999;28;20178;-75
2021/12/18 13:22:22;;;;;;;1.10;1.03;;;3.90;82.30;;;;;;5071380;28;20178;-74
2021/12/18 13:25:21;;;;;;;1.20;0.90;;;3.80;83.20;;;;;;5074829;28;20269;-74
2021/12/18 13:28:05;;;;;;;0.97;0.97;;;3.70;83.90;;;;;;5002205;28;20209;-74
2021/12/18 13:30:35;;;;;;;1.13;1.13;;;3.50;84.30;;;;;;5001154;28;20258;-75
2021/12/18 13:33:06;;;;;;;1.17;1.00;;;3.40;84.60;;;;;;5001978;28;20196;-75
2021/12/18 13:35:34;;;;;;;1.67;1.17;;;3.30;84.30;;;;;;5002758;28;21291;-74
2021/12/18 13:38:12;;;;;;;1.60;1.50;;;3.30;84.50;;;;;;5001193;28;20693;-74
2021/12/18 13:40:44;;;;;;;1.43;1.33;;;3.20;84.30;;;;;;5001514;28;20196;-73
2021/12/18 13:43:11;;;;;;;1.03;1.00;;;3.20;84.30;;;;;;5001849;28;20267;-73
2021/12/18 13:46:05;;;;;;;1.67;1.57;;;3.10;84.10;;;;;;5000728;28;20275;-73